createdAt,value
2022-11-20T00:01:32.264Z,8.48
2022-11-20T00:04:00.026Z,8.50
2022-11-20T00:06:28.795Z,8.43
2022-11-20T00:09:02.355Z,8.43
2022-11-20T00:11:30.996Z,8.24
2022-11-20T00:14:01.837Z,8.49
2022-11-20T00:16:32.190Z,8.40
2022-11-20T00:18:59.277Z,8.32
2022-11-20T00:21:28.736Z,8.31
2022-11-20T00:23:57.643Z,8.33
2022-11-20T00:26:27.512Z,8.68
2022-11-20T00:28:58.129Z,8.47
2022-11-20T00:31:25.915Z,8.63
2022-11-20T00:33:53.646Z,8.37
2022-11-20T00:36:26.970Z,8.39
2022-11-20T00:38:56.837Z,8.36
2022-11-20T00:41:25.880Z,8.36
2022-11-20T00:43:55.311Z,8.47
2022-11-20T00:46:25.851Z,8.59
2022-11-20T00:48:53.208Z,8.50
2022-11-20T00:51:23.679Z,8.52
2022-11-20T00:53:51.585Z,8.41
2022-11-20T00:56:20.389Z,8.47
2022-11-20T00:58:49.662Z,8.40
2022-11-20T01:01:17.697Z,8.47
2022-11-20T01:03:48.879Z,8.35
2022-11-20T01:06:31.668Z,8.32
2022-11-20T01:09:06.173Z,8.33
2022-11-20T01:11:36.828Z,8.36
2022-11-20T01:14:07.524Z,8.39
2022-11-20T01:16:38.980Z,8.38
2022-11-20T01:19:12.892Z,8.57
2022-11-20T01:21:44.911Z,8.51
2022-11-20T01:24:15.746Z,8.52
2022-11-20T01:26:44.837Z,8.30
2022-11-20T01:29:25.391Z,8.34
2022-11-20T01:31:53.694Z,8.56
2022-11-20T01:34:23.204Z,8.43
2022-11-20T01:36:51.938Z,8.50
2022-11-20T01:39:25.470Z,8.49
2022-11-20T01:42:13.974Z,8.32
2022-11-20T01:44:52.508Z,8.00
2022-11-20T01:47:42.135Z,8.19
2022-11-20T01:50:23.298Z,8.31
2022-11-20T01:53:00.815Z,8.22
2022-11-20T01:55:34.948Z,8.22
2022-11-20T01:58:03.501Z,8.11
2022-11-20T02:00:30.724Z,8.15
2022-11-20T02:03:08.110Z,8.28
2022-11-20T02:10:42.503Z,8.33
2022-11-20T02:13:29.502Z,8.20
2022-11-20T02:15:56.876Z,8.13
2022-11-20T02:18:24.830Z,8.17
2022-11-20T02:21:16.268Z,8.24
2022-11-20T02:24:10.155Z,8.11
2022-11-20T02:26:54.078Z,8.21
2022-11-20T02:29:37.436Z,7.89
2022-11-20T02:32:05.066Z,7.95
2022-11-20T02:34:32.485Z,8.15
2022-11-20T02:37:00.851Z,7.82
2022-11-20T02:39:29.203Z,7.92
2022-11-20T02:41:57.538Z,8.05
2022-11-20T02:44:24.612Z,8.17
2022-11-20T02:46:52.000Z,8.01
2022-11-20T02:49:19.097Z,8.02
2022-11-20T02:51:46.486Z,8.04
2022-11-20T02:54:13.470Z,8.12
2022-11-20T02:56:40.835Z,8.09
2022-11-20T02:59:08.251Z,7.93
2022-11-20T03:01:35.482Z,7.98
2022-11-20T03:04:03.190Z,8.09
2022-11-20T03:06:30.157Z,8.20
2022-11-20T03:08:57.005Z,8.18
2022-11-20T03:11:24.088Z,8.26
2022-11-20T03:13:51.196Z,8.20
2022-11-20T03:16:22.105Z,7.99
2022-11-20T03:18:50.050Z,7.88
2022-11-20T03:21:17.420Z,7.83
2022-11-20T03:23:44.450Z,7.81
2022-11-20T03:26:18.154Z,7.93
2022-11-20T03:28:51.558Z,8.11
2022-11-20T03:31:22.730Z,8.00
2022-11-20T03:33:49.882Z,8.02
2022-11-20T03:36:19.396Z,7.98
2022-11-20T03:38:46.912Z,7.98
2022-11-20T03:41:27.671Z,8.10
2022-11-20T03:44:00.869Z,8.06
2022-11-20T03:46:29.055Z,8.05
2022-11-20T03:48:57.098Z,8.09
2022-11-20T03:51:27.373Z,8.12
2022-11-20T03:53:58.647Z,8.10
2022-11-20T03:56:29.775Z,8.15
2022-11-20T03:58:57.559Z,8.03
2022-11-20T04:01:32.897Z,8.15
2022-11-20T04:04:00.262Z,8.03
2022-11-20T04:06:32.031Z,8.01
2022-11-20T04:09:00.129Z,7.86
2022-11-20T04:11:37.874Z,7.94
2022-11-20T04:14:07.697Z,8.00
2022-11-20T04:16:37.111Z,7.97
2022-11-20T04:19:11.278Z,8.03
2022-11-20T04:21:38.660Z,7.98
2022-11-20T04:24:06.289Z,7.85
2022-11-20T04:26:34.307Z,7.98
2022-11-20T04:29:04.634Z,7.90
2022-11-20T04:31:35.280Z,8.10
2022-11-20T04:34:05.547Z,8.18
2022-11-20T04:36:33.536Z,8.28
2022-11-20T04:39:04.782Z,8.20
2022-11-20T04:41:35.168Z,8.05
2022-11-20T04:44:06.086Z,8.18
2022-11-20T04:46:38.088Z,8.18
2022-11-20T04:49:05.475Z,8.03
2022-11-20T04:51:33.356Z,8.13
2022-11-20T04:54:01.163Z,8.06
2022-11-20T04:56:28.203Z,8.23
2022-11-20T04:58:55.553Z,8.18
2022-11-20T05:01:25.227Z,7.93
2022-11-20T05:03:52.966Z,8.13
2022-11-20T05:06:23.623Z,8.14
2022-11-20T05:08:50.875Z,8.28
2022-11-20T05:11:21.690Z,8.16
2022-11-20T05:13:50.254Z,8.16
2022-11-20T05:16:21.776Z,8.05
2022-11-20T05:18:49.532Z,8.11
2022-11-20T05:21:17.583Z,8.00
2022-11-20T05:23:45.834Z,8.10
2022-11-20T05:26:22.641Z,7.90
2022-11-20T05:28:51.072Z,8.12
2022-11-20T05:31:27.807Z,8.11
2022-11-20T05:33:57.674Z,8.13
2022-11-20T05:36:25.172Z,8.17
2022-11-20T05:38:55.506Z,8.05
2022-11-20T05:41:25.776Z,7.95
2022-11-20T05:43:52.896Z,8.12
2022-11-20T05:46:27.913Z,8.11
2022-11-20T05:48:57.510Z,8.17
2022-11-20T05:51:26.026Z,8.30
2022-11-20T05:53:53.126Z,8.33
2022-11-20T05:56:22.421Z,8.21
2022-11-20T05:58:49.926Z,8.19
2022-11-20T06:01:24.896Z,8.05
2022-11-20T06:03:52.343Z,8.27
2022-11-20T06:06:20.679Z,8.12
2022-11-20T06:08:48.314Z,8.10
2022-11-20T06:11:16.358Z,8.40
2022-11-20T06:13:44.131Z,8.16
2022-11-20T06:16:12.787Z,8.11
2022-11-20T06:18:40.375Z,8.14
2022-11-20T06:21:12.018Z,8.25
2022-11-20T06:23:40.295Z,8.02
2022-11-20T06:26:11.221Z,8.18
2022-11-20T06:28:38.715Z,8.10
2022-11-20T06:31:07.677Z,8.15
2022-11-20T06:33:34.648Z,8.24
2022-11-20T06:36:08.941Z,8.03
2022-11-20T06:38:38.443Z,8.34
2022-11-20T06:41:07.291Z,8.14
2022-11-20T06:43:34.402Z,8.19
2022-11-20T06:46:01.510Z,8.12
2022-11-20T06:48:30.084Z,8.14
2022-11-20T06:50:58.281Z,8.11
2022-11-20T06:53:25.990Z,7.84
2022-11-20T06:55:53.701Z,8.20
2022-11-20T06:58:20.858Z,8.00
2022-11-20T07:00:47.992Z,8.24
2022-11-20T07:03:15.324Z,8.29
2022-11-20T07:05:42.402Z,8.31
2022-11-20T07:08:09.976Z,8.38
2022-11-20T07:10:37.351Z,8.19
2022-11-20T07:13:04.508Z,8.15
2022-11-20T07:15:31.832Z,8.42
2022-11-20T07:18:02.572Z,8.45
2022-11-20T07:20:30.157Z,8.24
2022-11-20T07:22:57.981Z,8.32
2022-11-20T07:25:27.010Z,8.20
2022-11-20T07:27:58.123Z,8.26
2022-11-20T07:30:25.068Z,8.29
2022-11-20T07:32:53.757Z,8.15
2022-11-20T07:35:21.178Z,8.29
2022-11-20T07:37:49.630Z,8.36
2022-11-20T07:40:18.456Z,8.17
2022-11-20T07:42:57.025Z,8.38
2022-11-20T07:45:26.488Z,8.55
2022-11-20T07:47:53.648Z,8.22
2022-11-20T07:50:21.081Z,8.30
2022-11-20T07:52:48.851Z,8.31
2022-11-20T07:55:16.184Z,8.27
2022-11-20T07:57:43.416Z,8.28
2022-11-20T08:00:12.669Z,8.21
2022-11-20T08:02:41.561Z,8.33
2022-11-20T08:05:10.374Z,8.31
2022-11-20T08:07:43.778Z,8.53
2022-11-20T08:10:14.266Z,8.48
2022-11-20T08:13:09.092Z,8.48
2022-11-20T08:15:36.650Z,8.40
2022-11-20T08:21:04.676Z,8.73
2022-11-20T08:23:32.149Z,8.68
2022-11-20T08:25:59.061Z,8.52
2022-11-20T08:28:26.011Z,8.67
2022-11-20T08:31:01.199Z,8.73
2022-11-20T08:33:28.712Z,8.52
2022-11-20T08:36:02.070Z,8.59
2022-11-20T08:38:30.079Z,8.80
2022-11-20T08:41:20.237Z,8.66
2022-11-20T08:43:47.188Z,8.68
2022-11-20T08:46:14.255Z,8.80
2022-11-20T08:48:41.224Z,8.79
2022-11-20T08:51:08.299Z,8.88
2022-11-20T08:53:36.550Z,9.01
2022-11-20T08:56:03.597Z,9.10
2022-11-20T08:58:31.200Z,8.95
2022-11-20T09:00:58.288Z,8.99
2022-11-20T09:03:32.649Z,9.23
2022-11-20T09:06:02.411Z,8.93
2022-11-20T09:08:30.333Z,9.11
2022-11-20T09:10:58.970Z,8.81
2022-11-20T09:13:28.635Z,8.95
2022-11-20T09:16:02.565Z,8.94
2022-11-20T09:18:32.592Z,9.11
2022-11-20T09:21:01.143Z,9.01
2022-11-20T09:23:32.279Z,9.02
2022-11-20T09:26:00.603Z,9.08
2022-11-20T09:28:28.023Z,8.98
2022-11-20T09:30:55.307Z,9.34
2022-11-20T09:33:22.439Z,9.21
2022-11-20T09:35:49.602Z,9.35
2022-11-20T09:38:19.571Z,9.38
2022-11-20T09:41:04.194Z,9.57
2022-11-20T09:44:15.257Z,9.37
2022-11-20T09:46:59.374Z,9.51
2022-11-20T09:50:19.403Z,9.41
2022-11-20T09:53:21.274Z,9.44
2022-11-20T09:55:49.514Z,9.31
2022-11-20T09:58:36.747Z,9.34
2022-11-20T10:01:24.374Z,9.32
2022-11-20T10:04:22.670Z,9.32
2022-11-20T10:07:32.543Z,9.48
2022-11-20T10:10:01.661Z,9.43
2022-11-20T10:12:59.063Z,9.45
2022-11-20T10:15:56.487Z,9.60
2022-11-20T10:19:18.652Z,9.52
2022-11-20T10:22:12.950Z,9.59
2022-11-20T10:25:15.079Z,9.65
2022-11-20T10:28:21.967Z,9.63
2022-11-20T10:31:04.831Z,9.59
2022-11-20T10:34:05.117Z,9.80
2022-11-20T10:36:41.718Z,9.68
2022-11-20T10:39:36.356Z,9.70
2022-11-20T10:42:03.761Z,10.02
2022-11-20T10:44:55.141Z,9.88
2022-11-20T10:47:23.735Z,10.18
2022-11-20T10:49:56.629Z,10.11
2022-11-20T10:53:13.997Z,10.05
2022-11-20T10:56:01.434Z,9.88
2022-11-20T10:58:56.286Z,10.14
2022-11-20T11:01:24.831Z,10.43
2022-11-20T11:03:58.139Z,10.41
2022-11-20T11:06:47.861Z,10.21
2022-11-20T11:09:34.017Z,10.34
2022-11-20T11:12:06.862Z,10.34
2022-11-20T11:14:54.441Z,10.57
2022-11-20T11:17:28.540Z,10.63
2022-11-20T11:20:17.929Z,10.72
2022-11-20T11:22:52.332Z,11.01
2022-11-20T11:25:36.324Z,11.12
2022-11-20T11:28:18.400Z,10.41
2022-11-20T11:30:46.933Z,10.29
2022-11-20T11:33:31.208Z,10.08
2022-11-20T11:36:03.533Z,9.96
2022-11-20T11:38:41.803Z,9.82
2022-11-20T11:41:17.810Z,9.72
2022-11-20T11:44:16.276Z,9.68
2022-11-20T11:46:57.464Z,9.67
2022-11-20T11:49:24.768Z,9.65
2022-11-20T11:52:22.208Z,9.75
2022-11-20T11:54:57.230Z,9.76
2022-11-20T11:57:24.101Z,9.84
2022-11-20T12:00:23.853Z,9.96
2022-11-20T12:03:13.793Z,9.90
2022-11-20T12:05:47.021Z,10.00
2022-11-20T12:08:28.385Z,10.22
2022-11-20T12:11:07.853Z,10.71
2022-11-20T12:13:34.752Z,10.64
2022-11-20T12:16:06.139Z,10.85
2022-11-20T12:18:33.940Z,10.95
2022-11-20T12:21:23.683Z,11.30
2022-11-20T12:24:22.018Z,11.37
2022-11-20T12:27:33.262Z,11.17
2022-11-20T12:30:06.048Z,11.14
2022-11-20T12:33:01.620Z,11.07
2022-11-20T12:35:55.925Z,11.17
2022-11-20T12:39:00.918Z,10.81
2022-11-20T12:42:14.903Z,10.56
2022-11-20T12:45:12.514Z,10.75
2022-11-20T12:48:17.797Z,10.55
2022-11-20T12:51:19.841Z,10.97
2022-11-20T12:54:00.195Z,11.40
2022-11-20T12:57:00.824Z,11.13
2022-11-20T12:59:41.440Z,10.97
2022-11-20T13:02:29.587Z,10.73
2022-11-20T13:05:19.498Z,10.60
2022-11-20T13:07:48.351Z,10.63
2022-11-20T13:10:39.948Z,10.32
2022-11-20T13:13:26.115Z,10.37
2022-11-20T13:16:08.130Z,10.49
2022-11-20T13:18:43.730Z,10.24
2022-11-20T13:21:36.015Z,10.55
2022-11-20T13:24:28.728Z,10.34
2022-11-20T13:27:13.767Z,10.07
2022-11-20T13:29:46.456Z,9.98
2022-11-20T13:32:22.178Z,9.99
2022-11-20T13:34:59.218Z,10.06
2022-11-20T13:37:36.957Z,9.88
2022-11-20T13:40:13.583Z,10.15
2022-11-20T13:42:52.622Z,10.22
2022-11-20T13:45:32.454Z,10.53
2022-11-20T13:48:05.877Z,11.08
2022-11-20T13:50:56.352Z,11.42
2022-11-20T13:53:53.351Z,11.32
2022-11-20T13:56:48.882Z,11.37
2022-11-20T13:59:34.903Z,11.19
2022-11-20T14:02:02.577Z,10.90
2022-11-20T14:04:41.880Z,10.70
2022-11-20T14:07:11.061Z,10.64
2022-11-20T14:09:38.133Z,10.68
2022-11-20T14:12:20.663Z,10.68
2022-11-20T14:14:53.998Z,10.80
2022-11-20T14:17:29.800Z,10.40
2022-11-20T14:20:12.403Z,10.51
2022-11-20T14:22:39.356Z,10.76
2022-11-20T14:25:13.785Z,10.82
2022-11-20T14:27:43.674Z,10.48
2022-11-20T14:30:18.271Z,10.28
2022-11-20T14:32:47.350Z,10.76
2022-11-20T14:35:37.009Z,10.58
2022-11-20T14:38:04.859Z,10.49
2022-11-20T14:40:36.085Z,10.57
2022-11-20T14:43:27.604Z,10.25
2022-11-20T14:46:14.136Z,10.14
2022-11-20T14:48:52.752Z,10.19
2022-11-20T14:51:43.875Z,10.45
2022-11-20T14:54:16.522Z,10.07
2022-11-20T14:57:01.115Z,9.88
2022-11-20T14:59:31.633Z,9.91
2022-11-20T15:02:06.596Z,10.09
2022-11-20T15:04:33.543Z,10.14
2022-11-20T15:07:01.111Z,9.75
2022-11-20T15:09:28.152Z,10.25
2022-11-20T15:12:01.397Z,10.09
2022-11-20T15:14:31.083Z,9.85
2022-11-20T15:16:58.238Z,9.94
2022-11-20T15:19:27.699Z,9.70
2022-11-20T15:21:54.841Z,9.99
2022-11-20T15:24:22.183Z,10.00
2022-11-20T15:26:49.419Z,9.91
2022-11-20T15:29:21.893Z,9.80
2022-11-20T15:31:49.204Z,10.00
2022-11-20T15:34:17.010Z,9.71
2022-11-20T15:36:44.954Z,10.16
2022-11-20T15:39:12.501Z,10.11
2022-11-20T15:41:40.150Z,9.97
2022-11-20T15:44:07.514Z,9.77
2022-11-20T15:46:41.015Z,9.67
2022-11-20T15:49:14.468Z,9.62
2022-11-20T15:51:49.444Z,9.48
2022-11-20T15:54:24.099Z,9.36
2022-11-20T15:56:54.561Z,9.40
2022-11-20T15:59:22.110Z,9.49
2022-11-20T16:01:49.257Z,9.35
2022-11-20T16:04:17.843Z,9.47
2022-11-20T16:06:48.682Z,9.55
2022-11-20T16:09:15.762Z,9.34
2022-11-20T16:11:42.875Z,9.53
2022-11-20T16:14:30.812Z,9.52
2022-11-20T16:16:57.980Z,9.56
2022-11-20T16:19:24.960Z,9.46
2022-11-20T16:21:52.335Z,9.58
2022-11-20T16:24:20.438Z,9.67
2022-11-20T16:26:47.955Z,9.60
2022-11-20T16:29:15.297Z,9.68
2022-11-20T16:31:42.234Z,9.51
2022-11-20T16:34:12.399Z,9.75
2022-11-20T16:36:45.816Z,9.70
2022-11-20T16:39:15.026Z,9.74
2022-11-20T16:41:43.908Z,9.70
2022-11-20T16:44:11.760Z,9.44
2022-11-20T16:46:40.629Z,9.73
2022-11-20T16:49:13.533Z,9.52
2022-11-20T16:51:41.764Z,9.62
2022-11-20T16:54:10.543Z,9.38
2022-11-20T16:56:38.016Z,9.55
2022-11-20T16:59:07.381Z,9.28
2022-11-20T17:01:37.022Z,9.21
2022-11-20T17:04:06.468Z,9.54
2022-11-20T17:06:41.201Z,9.46
2022-11-20T17:09:09.613Z,9.22
2022-11-20T17:11:37.704Z,9.52
2022-11-20T17:14:07.474Z,9.15
2022-11-20T17:16:36.496Z,9.41
2022-11-20T17:19:05.242Z,9.46
2022-11-20T17:21:36.044Z,9.26
2022-11-20T17:24:06.618Z,9.20
2022-11-20T17:26:35.104Z,9.31
2022-11-20T17:29:15.659Z,9.37
2022-11-20T17:31:44.804Z,9.31
2022-11-20T17:34:15.380Z,9.24
2022-11-20T17:36:45.980Z,9.37
2022-11-20T17:39:17.523Z,9.43
2022-11-20T17:41:44.990Z,9.35
2022-11-20T17:44:13.342Z,9.29
2022-11-20T17:46:40.732Z,9.21
2022-11-20T17:49:08.159Z,9.09
2022-11-20T17:51:35.833Z,9.20
2022-11-20T17:54:07.697Z,9.10
2022-11-20T17:56:54.565Z,8.83
2022-11-20T17:59:22.119Z,8.55
2022-11-20T18:01:49.537Z,8.33
2022-11-20T18:04:17.323Z,8.18
2022-11-20T18:06:45.023Z,8.17
2022-11-20T18:09:12.701Z,8.19
2022-11-20T18:11:43.875Z,7.74
2022-11-20T18:14:28.908Z,8.03
2022-11-20T18:17:02.250Z,8.14
2022-11-20T18:19:42.562Z,7.91
2022-11-20T18:22:13.842Z,8.26
2022-11-20T18:24:42.091Z,8.24
2022-11-20T18:27:16.717Z,8.44
2022-11-20T18:29:45.168Z,8.19
2022-11-20T18:32:12.131Z,8.61
2022-11-20T18:34:39.188Z,8.37
2022-11-20T18:37:06.351Z,8.41
2022-11-20T18:39:33.426Z,8.59
2022-11-20T18:42:19.036Z,8.50
2022-11-20T18:44:51.836Z,8.18
2022-11-20T18:47:30.336Z,8.12
2022-11-20T18:50:01.041Z,8.04
2022-11-20T18:52:34.592Z,7.84
2022-11-20T18:55:04.247Z,7.70
2022-11-20T18:57:32.292Z,7.26
2022-11-20T19:00:03.605Z,7.37
2022-11-20T19:02:41.109Z,7.48
2022-11-20T19:05:13.971Z,7.46
2022-11-20T19:07:41.817Z,7.41
2022-11-20T19:10:09.542Z,7.47
2022-11-20T19:12:36.629Z,7.55
2022-11-20T19:15:06.449Z,7.44
2022-11-20T19:17:34.164Z,7.45
2022-11-20T19:20:01.196Z,7.52
2022-11-20T19:22:28.133Z,7.37
2022-11-20T19:24:55.072Z,7.43
2022-11-20T19:27:22.277Z,7.48
2022-11-20T19:29:49.338Z,7.36
2022-11-20T19:32:16.373Z,7.28
2022-11-20T19:34:44.077Z,7.39
2022-11-20T19:37:11.047Z,7.41
2022-11-20T19:39:38.183Z,7.22
2022-11-20T19:42:05.562Z,7.04
2022-11-20T19:44:32.993Z,6.90
2022-11-20T19:47:00.841Z,7.06
2022-11-20T19:49:27.940Z,6.91
2022-11-20T19:51:54.920Z,7.23
2022-11-20T19:54:21.829Z,7.10
2022-11-20T19:56:49.531Z,7.20
2022-11-20T19:59:16.560Z,6.94
2022-11-20T20:01:43.826Z,7.04
2022-11-20T20:04:10.846Z,7.28
2022-11-20T20:06:41.702Z,7.18
2022-11-20T20:09:13.768Z,7.03
2022-11-20T20:11:45.462Z,6.93
2022-11-20T20:14:16.061Z,6.90
2022-11-20T20:16:43.608Z,6.81
2022-11-20T20:19:15.328Z,6.74
2022-11-20T20:21:43.320Z,6.68
2022-11-20T20:24:13.860Z,6.62
2022-11-20T20:26:42.456Z,6.61
2022-11-20T20:29:09.404Z,6.80
2022-11-20T20:31:36.418Z,6.87
2022-11-20T20:34:05.531Z,7.00
2022-11-20T20:36:33.028Z,7.13
2022-11-20T20:39:03.023Z,7.15
2022-11-20T20:41:32.691Z,7.24
2022-11-20T20:44:20.000Z,7.02
2022-11-20T20:46:47.133Z,7.33
2022-11-20T20:49:14.097Z,7.46
2022-11-20T20:51:41.253Z,7.47
2022-11-20T20:54:08.185Z,7.47
2022-11-20T20:56:35.120Z,7.12
2022-11-20T20:59:03.286Z,7.18
2022-11-20T21:01:30.274Z,7.36
2022-11-20T21:03:58.061Z,7.64
2022-11-20T21:06:26.255Z,7.71
2022-11-20T21:08:53.549Z,7.52
2022-11-20T21:11:21.037Z,7.65
2022-11-20T21:13:49.189Z,7.40
2022-11-20T21:16:19.265Z,7.40
2022-11-20T21:18:46.555Z,7.37
2022-11-20T21:21:34.380Z,7.57
2022-11-20T21:24:01.764Z,7.25
2022-11-20T21:26:28.768Z,7.28
2022-11-20T21:28:58.046Z,7.37
2022-11-20T21:31:26.999Z,7.60
2022-11-20T21:33:56.202Z,7.45
2022-11-20T21:36:27.417Z,7.47
2022-11-20T21:38:56.075Z,7.23
2022-11-20T21:41:25.361Z,7.22
2022-11-20T21:46:44.465Z,7.18
2022-11-20T21:49:12.079Z,7.09
2022-11-20T21:51:39.148Z,7.22
2022-11-20T21:54:06.417Z,7.39
2022-11-20T21:56:33.837Z,7.36
2022-11-20T21:59:00.839Z,7.30
2022-11-20T22:01:30.265Z,7.57
2022-11-20T22:04:01.231Z,7.75
2022-11-20T22:06:34.154Z,7.54
2022-11-20T22:09:02.990Z,7.43
2022-11-20T22:11:30.204Z,7.37
2022-11-20T22:14:29.588Z,7.45
2022-11-20T22:16:56.705Z,7.52
2022-11-20T22:19:23.919Z,7.48
2022-11-20T22:21:51.401Z,7.64
2022-11-20T22:24:20.445Z,7.81
2022-11-20T22:26:48.167Z,7.75
2022-11-20T22:29:19.332Z,7.73
2022-11-20T22:31:47.795Z,7.71
2022-11-20T22:34:15.317Z,7.82
2022-11-20T22:36:42.640Z,7.70
2022-11-20T22:39:10.120Z,7.70
2022-11-20T22:41:37.375Z,7.88
2022-11-20T22:44:07.571Z,7.96
2022-11-20T22:46:37.088Z,7.94
2022-11-20T22:49:11.038Z,7.78
2022-11-20T22:51:41.048Z,7.70
2022-11-20T22:54:11.619Z,7.91
2022-11-20T22:56:38.750Z,7.94
2022-11-20T22:59:05.695Z,7.81
2022-11-20T23:01:36.924Z,7.80
2022-11-20T23:04:08.023Z,7.77
2022-11-20T23:06:35.555Z,7.81
2022-11-20T23:09:05.595Z,8.11
2022-11-20T23:11:33.149Z,8.07
2022-11-20T23:14:24.902Z,8.03
2022-11-20T23:16:54.581Z,8.05
2022-11-20T23:19:22.590Z,8.09
2022-11-20T23:21:49.670Z,7.95
2022-11-20T23:24:16.999Z,7.79
2022-11-20T23:26:45.330Z,7.76
2022-11-20T23:29:13.058Z,7.99
2022-11-20T23:31:40.068Z,7.99
2022-11-20T23:34:07.111Z,8.00
2022-11-20T23:36:34.170Z,8.06
2022-11-20T23:39:01.288Z,8.13
2022-11-20T23:41:28.440Z,8.13
2022-11-20T23:43:55.569Z,8.03
2022-11-20T23:46:22.707Z,8.23
2022-11-20T23:48:49.691Z,8.22
2022-11-20T23:51:17.460Z,8.06
2022-11-20T23:53:44.579Z,8.09
2022-11-20T23:56:14.351Z,7.97
2022-11-20T23:58:42.114Z,7.99
